createdAt,value
2018-05-03T00:02:08.257Z,11.05
2018-05-03T00:08:09.083Z,11.69
2018-05-03T00:14:09.743Z,11.22
2018-05-03T00:18:10.535Z,11.07
2018-05-03T00:24:11.284Z,11.74
2018-05-03T00:28:12.084Z,11.35
2018-05-03T00:34:12.840Z,11.51
2018-05-03T00:40:13.522Z,11.8
2018-05-03T00:44:14.223Z,12.21
2018-05-03T00:50:14.976Z,12.77
2018-05-03T00:54:15.812Z,12.29
2018-05-03T00:56:16.475Z,11.57
2018-05-03T01:00:17.920Z,11.52
2018-05-03T01:06:18.694Z,11.66
2018-05-03T01:10:19.349Z,10.97
2018-05-03T01:16:20.210Z,10.22
2018-05-03T01:20:20.852Z,10.58
2018-05-03T01:22:21.544Z,9.83
2018-05-03T01:26:22.281Z,10.17
2018-05-03T01:32:23.047Z,10.7
2018-05-03T01:36:23.788Z,10.18
2018-05-03T01:42:24.523Z,9.73
2018-05-03T01:46:25.351Z,9.68
2018-05-03T01:48:26.060Z,10.27
2018-05-03T01:52:26.848Z,9.97
2018-05-03T01:58:27.683Z,10.85
2018-05-03T02:02:28.509Z,10.27
2018-05-03T02:08:29.284Z,10.84
2018-05-03T02:12:30.009Z,10.44
2018-05-03T02:14:30.711Z,10.97
2018-05-03T02:18:31.349Z,10.66
2018-05-03T02:24:32.118Z,10.48
2018-05-03T02:28:32.724Z,10.26
2018-05-03T02:34:33.450Z,10.66
2018-05-03T02:38:34.181Z,10.13
2018-05-03T02:40:34.950Z,10.1
2018-05-03T02:44:35.694Z,9.38
2018-05-03T02:50:36.503Z,10.92
2018-05-03T02:54:37.171Z,10.33
2018-05-03T03:00:37.891Z,10.32
2018-05-03T03:04:38.692Z,9.58
2018-05-03T03:06:39.357Z,10.37
2018-05-03T03:10:40.148Z,10.12
2018-05-03T03:16:40.793Z,10.43
2018-05-03T03:20:41.545Z,9.58
2018-05-03T03:26:42.250Z,11.12
2018-05-03T03:30:42.905Z,10.11
2018-05-03T03:32:43.641Z,9.83
2018-05-03T03:36:44.300Z,10.1
2018-05-03T03:42:45.071Z,10.05
2018-05-03T03:46:45.843Z,9.88
2018-05-03T03:52:46.641Z,10.51
2018-05-03T03:56:47.473Z,9.62
2018-05-03T03:58:48.105Z,10.07
2018-05-03T04:02:48.952Z,9.25
2018-05-03T04:08:49.686Z,10.46
2018-05-03T04:12:50.426Z,9.98
2018-05-03T04:18:51.249Z,9.65
2018-05-03T04:22:52.126Z,8.89
2018-05-03T04:24:52.808Z,9.21
2018-05-03T04:28:53.484Z,8.54
2018-05-03T04:34:54.223Z,9.53
2018-05-03T04:38:55.162Z,8.95
2018-05-03T04:44:55.862Z,9.19
2018-05-03T04:48:56.742Z,9.23
2018-05-03T04:50:57.478Z,9.74
2018-05-03T04:54:58.227Z,9.71
2018-05-03T05:00:59.012Z,11.03
2018-05-03T05:04:59.862Z,10.67
2018-05-03T05:11:00.782Z,11.58
2018-05-03T05:17:01.437Z,11.69
2018-05-03T05:21:02.169Z,11.5
2018-05-03T05:27:02.963Z,12.05
2018-05-03T05:31:03.702Z,11.02
2018-05-03T05:37:04.347Z,9.94
2018-05-03T05:43:05.092Z,12.8
2018-05-03T05:47:05.847Z,11.01
2018-05-03T05:53:06.680Z,9.6
2018-05-03T05:57:07.478Z,9.68
2018-05-03T06:03:08.411Z,9.74
2018-05-03T06:09:09.129Z,8.93
2018-05-03T06:13:09.903Z,8.01
2018-05-03T06:19:10.523Z,7.56
2018-05-03T06:23:11.612Z,7.5
2018-05-03T06:29:12.376Z,8.02
2018-05-03T06:35:13.150Z,8.37
2018-05-03T06:39:13.847Z,8.21
2018-05-03T06:45:15.240Z,7.97
2018-05-03T06:49:16.290Z,7.57
2018-05-03T06:55:16.964Z,6.87
2018-05-03T07:01:17.793Z,6.69
2018-05-03T07:05:18.502Z,6.48
2018-05-03T07:11:19.223Z,6.42
2018-05-03T07:15:20.189Z,6.05
2018-05-03T07:21:21.026Z,5.85
2018-05-03T07:27:21.869Z,5.22
2018-05-03T07:31:22.898Z,5.24
2018-05-03T07:37:23.679Z,5.6
2018-05-03T07:41:24.412Z,5.65
2018-05-03T07:47:25.350Z,5.47
2018-05-03T07:53:26.154Z,6.44
2018-05-03T07:57:26.866Z,6.36
2018-05-03T08:03:27.566Z,6.28
2018-05-03T08:07:29.258Z,6.69
2018-05-03T08:13:30.012Z,6.62
2018-05-03T08:19:30.767Z,7.52
2018-05-03T08:23:31.511Z,6.63
2018-05-03T08:29:32.299Z,7.3
2018-05-03T08:33:33.187Z,7.39
2018-05-03T08:35:33.778Z,7.43
2018-05-03T08:39:34.487Z,7.27
2018-05-03T08:45:35.257Z,7.06
2018-05-03T08:49:35.966Z,7.21
2018-05-03T08:55:36.740Z,8.07
2018-05-03T08:59:37.624Z,7.37
2018-05-03T09:01:38.275Z,7.61
2018-05-03T09:05:39.050Z,6.88
2018-05-03T09:11:39.829Z,7.35
2018-05-03T09:15:40.637Z,6.72
2018-05-03T09:21:41.404Z,7.31
2018-05-03T09:25:42.152Z,6.43
2018-05-03T09:27:42.883Z,7.5
2018-05-03T09:31:43.725Z,7.54
2018-05-03T09:37:44.450Z,7.49
2018-05-03T09:41:45.414Z,7.21
2018-05-03T09:47:46.161Z,6.72
2018-05-03T09:51:46.893Z,6.29
2018-05-03T09:53:47.559Z,6.35
2018-05-03T09:57:48.279Z,7.12
2018-05-03T10:03:53.670Z,6.36
2018-05-03T10:08:08.272Z,6.44
2018-05-03T10:14:15.156Z,6.21
2018-05-03T10:18:15.951Z,5.56
2018-05-03T10:24:16.789Z,5.61
2018-05-03T10:28:17.495Z,4.93
2018-05-03T10:30:18.525Z,4.85
2018-05-03T10:34:19.230Z,4.76
2018-05-03T10:40:19.945Z,4.97
2018-05-03T10:44:21.077Z,4.4
2018-05-03T10:50:22.053Z,4.9
2018-05-03T10:54:22.904Z,4.86
2018-05-03T10:56:23.779Z,5.26
2018-05-03T11:00:25.097Z,5.45
2018-05-03T11:06:25.766Z,5.69
2018-05-03T11:10:26.571Z,4.74
2018-05-03T11:16:27.376Z,4.86
2018-05-03T11:20:28.209Z,4.89
2018-05-03T11:22:28.933Z,5.29
2018-05-03T11:26:29.777Z,5.02
2018-05-03T11:32:30.649Z,5.36
2018-05-03T11:36:31.382Z,4.95
2018-05-03T11:42:32.114Z,5.85
2018-05-03T11:46:32.917Z,5.54
2018-05-03T11:48:33.872Z,5.73
2018-05-03T11:52:34.688Z,5.55
2018-05-03T12:03:36.193Z,6.32
2018-05-03T12:07:37.107Z,6.1
2018-05-03T12:13:38.270Z,6.71
2018-05-03T12:19:39.332Z,7.31
2018-05-03T12:23:40.068Z,7.37
2018-05-03T12:29:41.022Z,7.65
2018-05-03T12:33:41.784Z,7.61
2018-05-03T12:39:42.601Z,7.41
2018-05-03T12:45:43.255Z,7.83
2018-05-03T12:49:44.071Z,7.55
2018-05-03T12:55:44.970Z,8.88
2018-05-03T12:59:48.961Z,8.26
2018-05-03T13:05:49.714Z,9.2
2018-05-03T13:11:50.476Z,8.78
2018-05-03T13:15:51.285Z,8.63
2018-05-03T13:21:52.112Z,8.53
2018-05-03T13:25:52.827Z,8.02
2018-05-03T13:31:53.618Z,8.73
2018-05-03T13:37:54.614Z,9.88
2018-05-03T13:41:55.358Z,9.3
2018-05-03T13:47:56.056Z,10.3
2018-05-03T13:51:56.765Z,9.3
2018-05-03T13:57:57.547Z,10.65
2018-05-03T14:03:58.355Z,12.18
2018-05-03T14:07:59.113Z,12.24
2018-05-03T14:14:00.019Z,12.95
2018-05-03T14:18:00.792Z,12.72
2018-05-03T14:20:01.681Z,12.33
2018-05-03T14:24:02.436Z,12.92
2018-05-03T14:30:03.220Z,11.78
2018-05-03T14:34:03.834Z,11.59
2018-05-03T14:40:04.685Z,5.16
2018-05-03T14:44:05.377Z,4.73
2018-05-03T14:46:06.188Z,3.66
2018-05-03T14:50:08.123Z,3.34
2018-05-03T14:56:08.869Z,2.47
2018-05-03T15:00:09.751Z,2.44
2018-05-03T15:06:10.525Z,2.03
2018-05-03T15:10:11.289Z,1.87
2018-05-03T15:12:11.932Z,2.04
2018-05-03T15:16:12.625Z,2.04
2018-05-03T15:22:13.452Z,2.31
2018-05-03T15:26:14.139Z,2.47
2018-05-03T15:32:14.969Z,2
2018-05-03T15:36:15.614Z,1.91
2018-05-03T15:38:16.239Z,3.61
2018-05-03T15:42:16.982Z,3.1
2018-05-03T15:48:17.702Z,3.19
2018-05-03T15:52:18.358Z,3.2
2018-05-03T15:58:19.217Z,4.26
2018-05-03T16:02:20.059Z,3.21
2018-05-03T16:04:20.838Z,2.59
2018-05-03T16:08:21.543Z,2.54
2018-05-03T16:14:22.391Z,2.75
2018-05-03T16:18:23.072Z,2.86
2018-05-03T16:24:24.079Z,2.49
2018-05-03T16:28:24.890Z,2.39
2018-05-03T16:30:25.928Z,2.61
2018-05-03T16:34:26.863Z,2.6
2018-05-03T16:40:27.807Z,3.33
2018-05-03T16:44:28.476Z,2.54
2018-05-03T16:50:36.667Z,3.48
2018-05-03T16:54:37.501Z,3.34
2018-05-03T17:00:38.111Z,3.44
2018-05-03T17:06:38.852Z,4.27
2018-05-03T17:10:39.490Z,3.66
2018-05-03T17:16:40.268Z,3.97
2018-05-03T17:20:40.986Z,3.71
2018-05-03T17:22:41.629Z,3.69
2018-05-03T17:26:42.432Z,3.95
2018-05-03T17:32:43.232Z,4.29
2018-05-03T17:36:43.915Z,3.85
2018-05-03T17:42:44.682Z,4.71
2018-05-03T17:46:45.363Z,4.42
2018-05-03T17:48:46.185Z,4.04
2018-05-03T17:52:47.124Z,4.37
2018-05-03T17:58:47.866Z,4.11
2018-05-03T18:02:48.576Z,4.19
2018-05-03T18:08:49.338Z,4.64
2018-05-03T18:12:50.092Z,4.36
2018-05-03T18:14:50.790Z,4.38
2018-05-03T18:18:51.570Z,4.07
2018-05-03T18:24:52.341Z,4.6
2018-05-03T18:28:53.163Z,4.54
2018-05-03T18:34:54.114Z,4.93
2018-05-03T18:38:54.979Z,4.67
2018-05-03T18:40:55.732Z,5.16
2018-05-03T18:44:56.658Z,4.94
2018-05-03T18:50:57.397Z,4.59
2018-05-03T18:54:58.281Z,4.83
2018-05-03T19:00:59.550Z,5.42
2018-05-03T19:05:00.362Z,5.39
2018-05-03T19:07:01.052Z,5.45
2018-05-03T19:11:01.772Z,4.74
2018-05-03T19:17:02.615Z,4.98
2018-05-03T19:21:03.356Z,5.18
2018-05-03T19:27:04.307Z,4.61
2018-05-03T19:31:05.126Z,4.95
2018-05-03T19:33:05.904Z,4.96
2018-05-03T19:37:06.572Z,4.8
2018-05-03T19:43:07.518Z,4.98
2018-05-03T19:47:08.270Z,5.35
2018-05-03T19:53:09.132Z,5.86
2018-05-03T19:57:09.955Z,6.34
2018-05-03T19:59:10.653Z,7.48
2018-05-03T20:03:11.479Z,7.74
2018-05-03T20:09:12.420Z,10.04
2018-05-03T20:13:13.205Z,9.63
2018-05-03T20:19:13.915Z,5.88
2018-05-03T20:23:14.644Z,5.69
2018-05-03T20:25:15.315Z,6.15
2018-05-03T20:29:16.339Z,5.8
2018-05-03T20:39:27.736Z,6.39
2018-05-03T20:39:27.869Z,6.82
2018-05-03T20:45:29.429Z,7.08
2018-05-03T20:49:30.212Z,7.21
2018-05-03T20:55:31.232Z,6.69
2018-05-03T21:01:31.904Z,6.66
2018-05-03T21:05:32.873Z,6.76
2018-05-03T21:11:33.608Z,6.3
2018-05-03T21:15:34.508Z,6.48
2018-05-03T21:21:35.357Z,6.68
2018-05-03T21:27:36.160Z,7.26
2018-05-03T21:31:36.890Z,7.15
2018-05-03T21:37:37.849Z,6.95
2018-05-03T21:41:38.666Z,7.18
2018-05-03T21:43:39.301Z,7.2
2018-05-03T21:47:40.059Z,6.96
2018-05-03T21:53:40.742Z,6.92
2018-05-03T21:57:41.451Z,7.02
2018-05-03T22:03:42.149Z,6.91
2018-05-03T22:07:42.881Z,6.58
2018-05-03T22:09:43.561Z,6.83
2018-05-03T22:13:44.348Z,6.03
2018-05-03T22:19:45.141Z,6.71
2018-05-03T22:23:45.868Z,6.09
2018-05-03T22:29:46.582Z,5.12
2018-05-03T22:33:47.288Z,4.62
2018-05-03T22:35:48.025Z,4.58
2018-05-03T22:39:48.664Z,4.69
2018-05-03T22:45:49.403Z,3.57
2018-05-03T22:49:50.060Z,3.75
2018-05-03T22:55:50.777Z,3.9
2018-05-03T22:59:51.502Z,3.98
2018-05-03T23:01:52.175Z,3.59
2018-05-03T23:05:52.952Z,3.63
2018-05-03T23:11:53.635Z,3.6
2018-05-03T23:15:54.349Z,4.4
2018-05-03T23:21:55.165Z,4.02
2018-05-03T23:25:55.920Z,3.73
2018-05-03T23:27:56.579Z,4.05
2018-05-03T23:31:57.280Z,3.4
2018-05-03T23:37:58.033Z,3.1
2018-05-03T23:41:58.738Z,3.09
2018-05-03T23:47:59.453Z,3.26
2018-05-03T23:52:00.329Z,2.76
2018-05-03T23:54:00.937Z,3.34
2018-05-03T23:58:01.652Z,3.03
